Time;durP1;ratioP1;P1;durP2;ratioP2;P2;SDS_P1;SDS_P2;PMS_P1;PMS_P2;Temp;Humidity;BMP_temperature;BMP_pressure;BME280_temperature;BME280_humidity;BME280_pressure;Samples;Min_cycle;Max_cycle;Signal;HPM_P1;HPM_P2
2021/07/19 00:00:36;;;;;;;31.77;20.85;;;;;;;24.54;82.19;99154.82;1688504;83;21296;-84
2021/07/19 00:03:04;;;;;;;37.08;19.75;;;;;;;24.60;82.89;99157.53;1717203;83;21034;-83
2021/07/19 00:05:31;;;;;;;27.35;19.37;;;;;;;24.52;83.79;99158.48;1717304;83;20912;-80
2021/07/19 00:07:57;;;;;;;24.55;18.37;;;;;;;24.43;84.68;99157.30;1717651;83;21551;-82
2021/07/19 00:10:24;;;;;;;29.90;17.25;;;;;;;24.40;84.93;99153.09;1687993;84;22297;-88
2021/07/19 00:12:51;;;;;;;26.52;19.17;;;;;;;24.44;84.40;99156.16;1688737;85;21230;-80
2021/07/19 00:15:23;;;;;;;32.90;19.40;;;;;;;24.47;84.25;99150.51;1688386;85;21031;-83
2021/07/19 00:17:51;;;;;;;30.95;18.60;;;;;;;24.51;84.58;99150.81;1688967;85;21214;-87
2021/07/19 00:20:18;;;;;;;24.05;19.27;;;;;;;24.41;84.39;99156.88;1713682;83;20964;-84
2021/07/19 00:22:44;;;;;;;23.87;16.77;;;;;;;24.33;84.95;99150.95;1673915;84;21515;-81
2021/07/19 00:25:12;;;;;;;21.33;16.40;;;;;;;24.27;85.26;99146.86;1715329;82;21011;-81
2021/07/19 00:27:41;;;;;;;18.35;16.48;;;;;;;24.47;83.05;99136.76;1717333;83;20987;-82
2021/07/19 00:30:10;;;;;;;35.48;20.80;;;;;;;24.79;80.93;99134.22;1713945;82;20969;-80
2021/07/19 00:32:38;;;;;;;31.45;18.62;;;;;;;24.88;80.59;99135.43;1710034;83;20968;-79
2021/07/19 00:35:07;;;;;;;28.45;18.30;;;;;;;24.68;82.17;99139.47;1714979;83;20965;-83
2021/07/19 00:37:34;;;;;;;28.23;19.23;;;;;;;24.45;82.67;99135.76;1715199;83;21087;-78
2021/07/19 00:40:01;;;;;;;24.70;17.73;;;;;;;24.33;83.55;99134.45;1715494;83;20975;-76
2021/07/19 00:42:27;;;;;;;36.10;19.60;;;;;;;24.25;84.89;99137.62;1694979;83;21027;-77
2021/07/19 00:44:55;;;;;;;22.32;16.57;;;;;;;24.10;85.21;99141.11;1715492;83;21506;-75
2021/07/19 00:47:22;;;;;;;21.77;16.15;;;;;;;24.07;85.44;99139.66;1715737;83;21159;-76
2021/07/19 00:49:48;;;;;;;27.95;16.65;;;;;;;24.18;84.44;99138.80;1689739;83;21200;-77
2021/07/19 00:52:16;;;;;;;20.72;16.35;;;;;;;24.40;82.91;99133.84;1688992;85;20984;-77
2021/07/19 00:54:43;;;;;;;25.72;14.30;;;;;;;24.49;81.34;99133.09;1751231;81;21056;-78
2021/07/19 00:57:11;;;;;;;25.52;15.85;;;;;;;24.70;79.71;99131.64;1750280;81;21061;-78
2021/07/19 00:59:39;;;;;;;26.68;15.30;;;;;;;24.96;78.66;99131.67;1749573;81;21085;-80
2021/07/19 01:02:07;;;;;;;24.80;15.30;;;;;;;25.10;77.82;99137.49;1749474;80;21280;-79
2021/07/19 01:04:34;;;;;;;18.07;14.03;;;;;;;25.13;76.62;99139.55;1749724;81;21026;-77
2021/07/19 01:07:03;;;;;;;18.67;14.28;;;;;;;25.30;75.52;99133.61;1749751;82;21087;-78
2021/07/19 01:09:30;;;;;;;17.70;14.15;;;;;;;25.45;75.21;99136.89;1756797;80;20983;-77
2021/07/19 01:11:59;;;;;;;26.50;17.37;;;;;;;25.53;74.62;99130.93;1749668;81;20999;-78
2021/07/19 01:14:25;;;;;;;23.83;16.85;;;;;;;25.39;76.25;99125.94;1742360;81;21118;-78
2021/07/19 01:16:53;;;;;;;23.77;16.82;;;;;;;24.98;78.37;99126.63;1690111;83;21008;-77
2021/07/19 01:19:23;;;;;;;23.30;17.75;;;;;;;24.70;80.18;99117.88;1719990;82;20919;-77
2021/07/19 01:22:10;;;;;;;24.10;17.30;;;;;;;24.45;81.92;99113.77;1750180;81;21011;-77
2021/07/19 01:25:03;;;;;;;22.32;16.77;;;;;;;24.36;81.74;99120.02;1720449;82;21047;-77
2021/07/19 01:27:53;;;;;;;31.93;16.40;;;;;;;24.31;82.36;99113.42;1711189;83;21038;-77
2021/07/19 01:30:19;;;;;;;26.80;17.07;;;;;;;24.22;81.65;99113.57;1701268;83;20999;-77
2021/07/19 01:32:46;;;;;;;27.62;18.45;;;;;;;24.23;83.28;99111.05;1718764;83;21023;-76
2021/07/19 01:35:13;;;;;;;30.68;18.17;;;;;;;24.16;84.02;99114.17;1703108;82;21547;-78
2021/07/19 01:37:42;;;;;;;24.80;17.65;;;;;;;24.07;83.49;99119.05;1720474;82;20998;-77
2021/07/19 01:40:10;;;;;;;24.20;15.98;;;;;;;24.09;83.09;99118.10;1748258;82;21316;-78
2021/07/19 01:42:37;;;;;;;17.67;15.15;;;;;;;24.24;80.81;99111.85;1720677;82;21038;-77
2021/07/19 01:45:06;;;;;;;26.12;16.23;;;;;;;24.31;80.91;99113.42;1744299;81;21047;-78
2021/07/19 01:47:32;;;;;;;27.05;17.35;;;;;;;24.28;82.56;99120.41;1745642;82;21002;-78
2021/07/19 01:50:00;;;;;;;29.80;19.87;;;;;;;24.25;81.05;99117.00;1745863;82;21471;-78
2021/07/19 01:52:27;;;;;;;30.08;16.55;;;;;;;24.35;80.76;99117.63;1720783;82;21149;-77
2021/07/19 01:54:54;;;;;;;24.70;14.87;;;;;;;24.39;80.44;99120.67;1747261;81;20982;-77
2021/07/19 01:57:21;;;;;;;25.72;16.97;;;;;;;24.34;82.30;99123.69;1725746;81;21014;-77
2021/07/19 01:59:51;;;;;;;18.48;15.03;;;;;;;24.23;82.86;99127.54;1750385;81;21157;-78
2021/07/19 02:02:37;;;;;;;19.60;15.00;;;;;;;24.07;83.70;99128.66;1725730;81;21320;-78
2021/07/19 02:05:09;;;;;;;19.07;16.67;;;;;;;23.91;84.28;99132.75;1722153;81;21137;-79
2021/07/19 02:07:37;;;;;;;22.27;17.25;;;;;;;23.76;85.64;99128.02;1695419;83;20990;-78
2021/07/19 02:10:07;;;;;;;31.95;17.05;;;;;;;23.66;86.14;99136.19;1721520;83;21011;-79
2021/07/19 02:12:42;;;;;;;25.65;16.02;;;;;;;23.69;86.50;99131.95;1693756;83;20999;-78
2021/07/19 02:15:15;;;;;;;20.62;15.38;;;;;;;23.65;86.17;99142.02;1725509;81;20986;-76
2021/07/19 02:17:52;;;;;;;19.57;14.43;;;;;;;23.64;86.14;99143.19;1752540;81;21090;-78
2021/07/19 02:20:19;;;;;;;19.60;13.90;;;;;;;23.67;85.87;99143.86;1752735;81;20951;-79
2021/07/19 02:22:47;;;;;;;23.70;13.68;;;;;;;23.76;85.77;99152.73;1725276;81;21554;-79
2021/07/19 02:25:15;;;;;;;20.70;14.40;;;;;;;23.84;85.53;99153.95;1741029;81;21085;-78
2021/07/19 02:27:47;;;;;;;22.17;14.30;;;;;;;23.93;85.39;99148.89;1725331;81;21055;-78
2021/07/19 02:30:17;;;;;;;18.52;16.62;;;;;;;24.03;84.99;99155.25;1725719;81;21098;-79
2021/07/19 02:32:47;;;;;;;23.52;15.90;;;;;;;24.07;83.37;99153.39;1725561;81;21057;-79
2021/07/19 02:35:14;;;;;;;24.30;16.67;;;;;;;24.17;82.27;99155.05;1741492;81;20985;-78
2021/07/19 02:37:45;;;;;;;23.67;16.07;;;;;;;24.17;83.16;99155.05;1733728;81;21024;-78
2021/07/19 02:40:17;;;;;;;18.15;16.17;;;;;;;24.10;83.63;99152.67;1732196;81;21054;-77
2021/07/19 02:42:48;;;;;;;22.35;16.10;;;;;;;24.02;84.11;99152.28;1751177;81;21236;-77
2021/07/19 02:45:16;;;;;;;24.67;15.28;;;;;;;23.98;84.40;99147.27;1721962;81;21686;-79
2021/07/19 02:47:48;;;;;;;19.35;13.95;;;;;;;24.04;84.35;99149.95;1721312;82;33413;-78
2021/07/19 02:50:19;;;;;;;23.10;14.73;;;;;;;24.18;83.89;99151.73;1701061;81;21014;-77
2021/07/19 02:52:45;;;;;;;20.20;15.80;;;;;;;24.21;83.48;99154.59;1755668;81;21054;-78
2021/07/19 02:55:14;;;;;;;24.87;16.55;;;;;;;24.25;83.21;99154.11;1693564;83;22139;-77
2021/07/19 02:57:42;;;;;;;27.05;15.90;;;;;;;24.32;83.14;99159.77;1695939;84;20982;-77
2021/07/19 03:00:13;;;;;;;21.95;17.40;;;;;;;24.43;82.70;99151.80;1708945;83;21008;-78
2021/07/19 03:02:56;;;;;;;26.00;18.42;;;;;;;24.55;81.88;99155.84;1719651;83;21489;-78
2021/07/19 03:05:28;;;;;;;25.20;18.77;;;;;;;24.58;81.42;99168.08;1717086;83;21016;-77
2021/07/19 03:07:58;;;;;;;29.63;19.95;;;;;;;24.61;81.26;99161.28;1710201;83;21991;-80
2021/07/19 03:10:28;;;;;;;31.68;20.30;;;;;;;24.67;81.00;99168.12;1706750;83;21527;-82
2021/07/19 03:13:01;;;;;;;33.60;18.98;;;;;;;24.74;80.65;99171.05;1710115;83;20984;-82
2021/07/19 03:15:31;;;;;;;24.77;18.77;;;;;;;24.76;80.28;99167.92;1712573;83;21106;-81
2021/07/19 03:18:02;;;;;;;27.02;18.23;;;;;;;24.78;80.26;99171.13;1719631;83;20936;-82
2021/07/19 03:20:30;;;;;;;31.73;17.75;;;;;;;24.84;80.16;99177.97;1718672;83;21130;-83
2021/07/19 03:22:58;;;;;;;24.18;16.42;;;;;;;24.88;79.83;99178.87;1694021;83;21053;-81
2021/07/19 03:25:30;;;;;;;26.23;20.70;;;;;;;24.85;79.68;99181.48;1674208;85;21012;-80
2021/07/19 03:27:57;;;;;;;21.57;13.75;;;;;;;24.67;80.14;99205.25;1663172;84;21090;-82
2021/07/19 03:30:23;;;;;;;21.73;12.10;;;;;;;24.60;79.38;99209.78;1671826;83;21049;-81
2021/07/19 03:32:50;;;;;;;17.05;12.60;;;;;;;24.61;78.62;99207.23;1719677;83;21274;-80
2021/07/19 03:35:24;;;;;;;21.10;13.25;;;;;;;24.68;77.65;99204.09;1718886;83;20979;-81
2021/07/19 03:37:53;;;;;;;18.10;13.55;;;;;;;24.76;77.38;99195.43;1719751;83;20961;-77
2021/07/19 03:40:22;;;;;;;23.25;15.03;;;;;;;24.83;77.30;99201.70;1693741;83;21028;-81
2021/07/19 03:42:52;;;;;;;24.27;15.78;;;;;;;24.85;77.83;99198.80;1692315;83;21473;-81
2021/07/19 03:45:19;;;;;;;27.93;14.05;;;;;;;24.88;78.36;99198.70;1689285;85;21155;-83
2021/07/19 03:47:47;;;;;;;22.93;14.00;;;;;;;24.91;78.53;99202.11;1690860;83;21043;-84
2021/07/19 03:50:17;;;;;;;16.45;14.33;;;;;;;24.93;79.02;99199.23;1713730;83;21012;-84
2021/07/19 03:52:46;;;;;;;17.95;14.93;;;;;;;24.94;79.05;99207.69;1676752;83;21024;-82
2021/07/19 03:55:15;;;;;;;22.70;14.83;;;;;;;24.96;79.58;99207.34;1693077;83;20983;-82
2021/07/19 03:57:43;;;;;;;19.30;17.00;;;;;;;24.99;79.96;99205.23;1689899;83;21151;-81
2021/07/19 04:00:15;;;;;;;24.98;15.90;;;;;;;24.99;80.48;99205.23;1689150;83;21008;-84
2021/07/19 04:02:44;;;;;;;21.65;16.27;;;;;;;25.01;81.23;99200.19;1663520;84;20972;-83
2021/07/19 04:05:14;;;;;;;18.62;15.68;;;;;;;25.00;82.07;99202.14;1690673;84;21051;-77
2021/07/19 04:07:46;;;;;;;20.75;16.73;;;;;;;25.03;82.49;99193.77;1689663;84;21062;-77
2021/07/19 04:10:16;;;;;;;20.72;15.45;;;;;;;25.06;82.45;99189.70;1680259;83;21130;-78
2021/07/19 04:12:50;;;;;;;22.20;16.75;;;;;;;25.13;82.74;99194.59;1698644;83;21027;-78
2021/07/19 04:15:19;;;;;;;27.60;17.57;;;;;;;25.17;82.66;99188.01;1689386;83;20952;-79
2021/07/19 04:17:47;;;;;;;25.88;16.25;;;;;;;25.23;82.67;99188.50;1663553;85;20928;-79
2021/07/19 04:20:17;;;;;;;18.60;16.23;;;;;;;25.32;82.15;99193.83;1663313;85;21588;-78
2021/07/19 04:22:44;;;;;;;22.62;15.25;;;;;;;25.38;81.69;99198.67;1708161;83;21085;-79
2021/07/19 04:25:13;;;;;;;21.45;15.38;;;;;;;25.43;81.26;99192.89;1719319;83;20901;-77
2021/07/19 04:27:43;;;;;;;19.30;16.85;;;;;;;25.52;80.48;99199.56;1719700;83;22171;-77
2021/07/19 04:30:12;;;;;;;24.23;17.10;;;;;;;25.55;79.69;99187.88;1719527;83;21059;-77
2021/07/19 04:32:47;;;;;;;21.87;15.53;;;;;;;25.53;78.85;99202.53;1703107;83;21023;-77
2021/07/19 04:35:20;;;;;;;23.32;16.60;;;;;;;25.50;78.77;99195.81;1665063;84;20996;-79
2021/07/19 04:37:48;;;;;;;;;;;;;;;25.56;78.11;99201.26;1667116;85;20964;-76
2021/07/19 04:40:17;;;;;;;28.50;16.40;;;;;;;25.64;77.68;99195.91;1689271;85;20435;-78
2021/07/19 04:42:43;;;;;;;20.23;16.00;;;;;;;25.71;77.12;99195.47;1689305;84;21000;-77
2021/07/19 04:45:10;;;;;;;26.00;16.57;;;;;;;25.77;76.51;99192.65;1713829;83;21042;-77
2021/07/19 04:47:37;;;;;;;26.93;17.80;;;;;;;25.81;76.05;99189.38;1663679;85;21075;-79
2021/07/19 04:50:04;;;;;;;18.27;15.63;;;;;;;25.85;75.75;99188.09;1688983;83;21603;-76
2021/07/19 04:52:32;;;;;;;20.10;15.18;;;;;;;25.88;75.60;99190.91;1686288;85;21032;-77
2021/07/19 04:54:59;;;;;;;18.15;14.73;;;;;;;25.90;75.61;99194.08;1714811;83;21024;-78
2021/07/19 04:57:25;;;;;;;20.10;16.00;;;;;;;25.92;75.62;99191.77;1720031;83;21020;-77
2021/07/19 04:59:51;;;;;;;30.30;15.50;;;;;;;25.98;75.35;99189.53;1692024;83;21742;-77
2021/07/19 05:02:20;;;;;;;24.27;17.12;;;;;;;26.04;74.93;99184.71;1690053;83;21767;-78
2021/07/19 05:04:48;;;;;;;20.65;15.85;;;;;;;26.04;74.36;99184.71;1689289;84;21043;-78
2021/07/19 05:07:17;;;;;;;20.82;16.42;;;;;;;26.07;74.14;99184.58;1689382;85;21501;-79
2021/07/19 05:09:44;;;;;;;21.05;15.03;;;;;;;26.13;74.03;99187.84;1700231;83;21159;-78
2021/07/19 05:12:12;;;;;;;30.40;17.02;;;;;;;26.18;73.54;99180.07;1681758;84;21267;-79
2021/07/19 05:14:39;;;;;;;31.37;17.57;;;;;;;26.24;72.60;99183.33;1693899;83;21505;-76
2021/07/19 05:17:10;;;;;;;27.02;16.82;;;;;;;26.26;72.01;99187.33;1719754;83;21067;-78
2021/07/19 05:19:38;;;;;;;34.35;18.40;;;;;;;26.27;72.15;99185.37;1719906;83;21098;-77
2021/07/19 05:22:12;;;;;;;24.80;18.12;;;;;;;26.25;72.31;99179.42;1710640;83;21520;-78
2021/07/19 05:24:38;;;;;;;24.50;18.20;;;;;;;26.24;72.46;99177.81;1663464;85;21194;-78
2021/07/19 05:27:06;;;;;;;20.05;15.63;;;;;;;26.25;71.96;99179.42;1663930;85;21193;-77
2021/07/19 05:29:33;;;;;;;20.15;16.50;;;;;;;26.29;71.88;99181.07;1689439;85;21024;-78
2021/07/19 05:32:02;;;;;;;24.00;16.02;;;;;;;26.33;71.69;99180.55;1695115;83;21511;-78
2021/07/19 05:34:28;;;;;;;32.50;18.15;;;;;;;26.40;71.56;99189.54;1719719;83;21521;-76
2021/07/19 05:36:55;;;;;;;20.12;17.32;;;;;;;26.45;71.42;99192.00;1695752;83;21172;-77
2021/07/19 05:39:21;;;;;;;35.75;17.05;;;;;;;26.46;71.29;99189.45;1689208;83;21575;-77
2021/07/19 05:41:47;;;;;;;26.00;16.52;;;;;;;26.46;71.32;99191.64;1689503;85;20988;-77
2021/07/19 05:44:14;;;;;;;24.65;17.07;;;;;;;26.47;71.24;99194.59;1689353;85;21521;-78
2021/07/19 05:46:42;;;;;;;20.88;14.85;;;;;;;26.53;71.33;99201.18;1683125;83;21015;-78
2021/07/19 05:49:08;;;;;;;19.30;15.30;;;;;;;26.57;70.96;99198.69;1693271;83;21154;-80
2021/07/19 05:51:35;;;;;;;18.32;15.43;;;;;;;26.65;70.52;99192.16;1689246;85;21011;-79
2021/07/19 05:54:03;;;;;;;25.32;18.48;;;;;;;26.69;70.18;99195.77;1694562;83;21044;-78
2021/07/19 05:56:31;;;;;;;33.23;18.07;;;;;;;26.72;69.95;99188.11;1719685;83;21047;-80
2021/07/19 05:58:58;;;;;;;24.32;17.65;;;;;;;26.76;69.56;99195.86;1690186;83;21559;-78
2021/07/19 06:01:26;;;;;;;27.80;18.50;;;;;;;26.77;69.39;99192.52;1689667;84;21012;-78
2021/07/19 06:03:52;;;;;;;24.70;17.32;;;;;;;26.79;69.52;99195.72;1665701;83;21021;-78
2021/07/19 06:06:19;;;;;;;26.50;16.30;;;;;;;26.82;69.26;99186.69;1719753;83;20968;-79
2021/07/19 06:08:45;;;;;;;18.62;15.95;;;;;;;26.85;69.14;99192.29;1693102;83;21040;-78
2021/07/19 06:11:11;;;;;;;19.73;16.62;;;;;;;26.91;68.53;99183.73;1693241;83;21493;-77
2021/07/19 06:13:38;;;;;;;29.52;16.55;;;;;;;26.94;68.68;99188.50;1719621;83;21104;-76
2021/07/19 06:16:04;;;;;;;20.02;14.85;;;;;;;27.00;68.87;99192.54;1665645;84;21502;-77
2021/07/19 06:18:31;;;;;;;19.73;16.10;;;;;;;27.07;68.51;99195.39;1689306;84;21039;-77
2021/07/19 06:20:57;;;;;;;19.60;15.90;;;;;;;27.09;68.44;99196.62;1689546;84;21039;-77
2021/07/19 06:23:23;;;;;;;31.65;17.48;;;;;;;27.10;68.35;99197.43;1693882;83;21024;-77
2021/07/19 06:25:50;;;;;;;28.38;17.40;;;;;;;27.11;68.40;99201.76;1719797;83;21783;-79
2021/07/19 06:28:17;;;;;;;32.95;18.35;;;;;;;27.11;68.22;99201.76;1669818;83;21008;-77
2021/07/19 06:30:43;;;;;;;25.70;18.10;;;;;;;27.10;68.40;99202.34;1719754;83;21541;-78
2021/07/19 06:33:09;;;;;;;28.38;16.23;;;;;;;27.13;68.42;99204.95;1693102;83;21091;-77
2021/07/19 06:35:35;;;;;;;24.72;17.23;;;;;;;27.20;68.03;99205.05;1692964;83;21011;-77
2021/07/19 06:38:02;;;;;;;32.58;17.40;;;;;;;27.23;68.04;99200.98;1693204;83;21248;-77
2021/07/19 06:40:28;;;;;;;25.95;17.60;;;;;;;27.31;67.94;99208.19;1692334;82;20963;-76
2021/07/19 06:42:55;;;;;;;19.23;15.30;;;;;;;27.44;67.52;99209.33;1663984;85;21091;-77
2021/07/19 06:45:21;;;;;;;22.13;15.00;;;;;;;27.55;66.87;99217.22;1689448;84;21127;-77
2021/07/19 06:47:47;;;;;;;21.48;14.68;;;;;;;27.62;65.76;99213.18;1703299;83;20972;-77
2021/07/19 06:50:14;;;;;;;23.00;14.63;;;;;;;27.69;64.45;99211.88;1652883;84;21492;-77
2021/07/19 06:52:40;;;;;;;16.97;12.43;;;;;;;27.73;63.54;99218.23;1682036;84;21524;-77
2021/07/19 06:55:09;;;;;;;22.98;16.65;;;;;;;27.78;63.69;99219.30;1696711;84;21011;-77
2021/07/19 06:57:36;;;;;;;27.40;18.40;;;;;;;27.80;63.31;99218.34;1667688;84;21006;-77
2021/07/19 07:00:05;;;;;;;22.48;13.18;;;;;;;27.80;62.99;99214.20;1649538;86;21019;-77
2021/07/19 07:02:32;;;;;;;25.50;13.35;;;;;;;27.81;61.98;99221.91;1638796;84;22027;-76
2021/07/19 07:04:58;;;;;;;23.02;13.08;;;;;;;27.83;61.81;99215.40;1667333;85;20967;-78
2021/07/19 07:07:25;;;;;;;17.55;12.43;;;;;;;27.84;61.66;99219.17;1638410;86;21559;-77
2021/07/19 07:09:51;;;;;;;16.32;11.78;;;;;;;27.91;61.18;99219.86;1682681;84;20978;-78
2021/07/19 07:12:17;;;;;;;22.25;12.45;;;;;;;27.99;60.95;99215.41;1696120;84;21537;-79
2021/07/19 07:14:43;;;;;;;24.37;14.90;;;;;;;28.11;60.87;99215.17;1689040;84;21032;-78
2021/07/19 07:17:10;;;;;;;26.95;14.95;;;;;;;28.16;61.53;99212.66;1638679;86;21011;-79
2021/07/19 07:19:36;;;;;;;20.72;12.93;;;;;;;28.23;61.54;99211.36;1667414;86;21102;-78
2021/07/19 07:22:03;;;;;;;21.00;14.10;;;;;;;28.32;61.67;99211.84;1667957;84;20979;-78
2021/07/19 07:24:29;;;;;;;20.97;14.73;;;;;;;28.39;61.12;99209.75;1667147;85;21019;-79
2021/07/19 07:26:55;;;;;;;24.57;15.32;;;;;;;28.42;60.26;99208.98;1667257;84;21810;-77
2021/07/19 07:29:22;;;;;;;22.02;14.55;;;;;;;28.43;60.24;99205.84;1638672;86;21582;-77
2021/07/19 07:31:48;;;;;;;19.52;12.90;;;;;;;28.51;59.95;99206.11;1688354;83;21011;-77
2021/07/19 07:34:14;;;;;;;25.50;14.30;;;;;;;28.55;59.96;99198.63;1696637;84;21047;-78
2021/07/19 07:36:41;;;;;;;16.97;13.03;;;;;;;28.54;59.41;99195.65;1696876;84;21003;-78
2021/07/19 07:39:08;;;;;;;26.33;15.98;;;;;;;28.52;59.77;99189.72;1666968;84;21069;-79
2021/07/19 07:41:34;;;;;;;23.52;15.78;;;;;;;28.59;59.82;99193.91;1679530;84;21022;-78
2021/07/19 07:44:01;;;;;;;23.02;13.00;;;;;;;28.67;59.37;99191.22;1667325;84;21046;-75
2021/07/19 07:46:28;;;;;;;30.37;15.35;;;;;;;28.74;59.45;99183.79;1667205;86;21030;-78
2021/07/19 07:48:54;;;;;;;32.93;15.65;;;;;;;28.88;59.96;99185.28;1667398;85;21070;-78
2021/07/19 07:51:20;;;;;;;31.17;14.07;;;;;;;29.00;59.12;99182.22;1681183;84;21773;-78
2021/07/19 07:53:47;;;;;;;25.60;15.80;;;;;;;29.11;58.80;99178.14;1696624;84;20888;-79
2021/07/19 07:56:13;;;;;;;23.85;14.07;;;;;;;29.13;59.30;99182.69;1696955;83;21011;-78
2021/07/19 07:58:40;;;;;;;38.40;16.27;;;;;;;29.18;59.44;99173.22;1696134;84;21039;-77
2021/07/19 08:01:07;;;;;;;26.27;14.25;;;;;;;29.25;59.26;99168.53;1663435;84;21590;-77
2021/07/19 08:03:33;;;;;;;17.70;12.47;;;;;;;29.37;59.15;99164.65;1638555;86;21834;-78
2021/07/19 08:05:59;;;;;;;19.85;12.20;;;;;;;29.50;58.63;99154.05;1667289;86;20979;-79
2021/07/19 08:08:26;;;;;;;24.57;14.70;;;;;;;29.61;57.88;99154.27;1673248;84;21063;-79
2021/07/19 08:10:52;;;;;;;22.32;12.20;;;;;;;29.74;57.85;99151.34;1696868;83;20980;-79
2021/07/19 08:13:19;;;;;;;21.48;13.72;;;;;;;29.85;57.16;99133.36;1697068;84;21121;-79
2021/07/19 08:15:47;;;;;;;22.65;13.25;;;;;;;29.92;55.63;99126.48;1667191;84;21090;-79
2021/07/19 08:18:15;;;;;;;28.87;14.98;;;;;;;29.92;55.46;99125.10;1663334;84;21047;-76
2021/07/19 08:20:43;;;;;;;25.45;14.25;;;;;;;29.96;54.69;99116.78;1696859;84;21476;-80
2021/07/19 08:23:09;;;;;;;21.52;11.50;;;;;;;29.96;54.33;99107.08;1696714;84;21031;-77
2021/07/19 08:25:36;;;;;;;22.02;13.60;;;;;;;29.93;54.39;99098.94;1666822;84;21019;-81
2021/07/19 08:28:03;;;;;;;29.02;11.85;;;;;;;30.04;54.37;99101.14;1694911;84;21718;-79
2021/07/19 08:30:29;;;;;;;17.35;13.10;;;;;;;30.22;54.27;99102.53;1695854;84;21015;-78
2021/07/19 08:32:57;;;;;;;18.90;12.05;;;;;;;30.29;53.63;99115.04;1667045;84;21022;-78
2021/07/19 08:35:23;;;;;;;18.05;12.40;;;;;;;30.38;53.43;99118.21;1696962;84;21055;-79
2021/07/19 08:37:56;;;;;;;20.12;13.65;;;;;;;30.49;53.81;99109.92;1695248;84;21031;-77
2021/07/19 08:40:20;;;;;;;17.20;12.43;;;;;;;30.57;53.82;99102.57;1694557;84;21257;-78
2021/07/19 08:42:47;;;;;;;14.68;12.40;;;;;;;30.63;53.84;99100.98;1694800;84;20999;-77
2021/07/19 08:45:13;;;;;;;22.30;11.05;;;;;;;30.69;53.77;99118.84;1667515;84;21094;-77
2021/07/19 08:47:45;;;;;;;22.07;13.45;;;;;;;30.70;53.96;99123.77;1695259;84;20986;-78
2021/07/19 08:50:13;;;;;;;12.33;11.00;;;;;;;30.71;53.62;99134.48;1694592;83;21043;-79
2021/07/19 08:52:40;;;;;;;20.10;12.55;;;;;;;30.64;52.96;99144.23;1664318;84;21484;-75
2021/07/19 08:55:09;;;;;;;21.25;11.78;;;;;;;30.57;53.13;99159.48;1651945;85;21094;-79
2021/07/19 08:57:39;;;;;;;21.95;12.23;;;;;;;30.52;52.99;99182.67;1671286;84;21059;-80
2021/07/19 09:00:07;;;;;;;20.25;12.47;;;;;;;30.46;52.90;99187.02;1662160;84;21524;-79
2021/07/19 09:02:34;;;;;;;24.65;13.15;;;;;;;30.47;52.85;99179.70;1671449;84;21014;-81
2021/07/19 09:05:00;;;;;;;22.13;12.78;;;;;;;30.44;52.54;99159.66;1680274;84;21350;-79
2021/07/19 09:07:27;;;;;;;22.82;12.15;;;;;;;30.35;52.47;99147.36;1656116;84;21082;-80
2021/07/19 09:09:54;;;;;;;16.25;12.45;;;;;;;30.28;52.19;99145.36;1691645;84;20893;-82
2021/07/19 09:12:33;;;;;;;23.00;11.97;;;;;;;30.23;52.14;99136.03;1654156;84;21143;-85
2021/07/19 09:15:01;;;;;;;27.85;11.20;;;;;;;30.24;51.81;99134.85;1691739;84;20928;-81
2021/07/19 09:17:28;;;;;;;18.27;10.08;;;;;;;30.22;51.36;99142.77;1690619;84;21779;-81
2021/07/19 09:19:56;;;;;;;18.65;10.55;;;;;;;30.20;51.48;99152.89;1659065;84;21031;-80
2021/07/19 09:22:27;;;;;;;17.62;10.78;;;;;;;30.15;53.32;99189.34;1691367;84;21000;-84
2021/07/19 09:25:16;;;;;;;21.10;9.63;;;;;;;29.88;53.71;99231.83;1688131;83;21135;-76
2021/07/19 09:27:58;;;;;;;20.27;9.35;;;;;;;29.35;54.53;99253.69;1665696;84;21077;-75
2021/07/19 09:30:28;;;;;;;11.65;9.30;;;;;;;28.59;55.96;99310.15;1691395;84;21165;-84
2021/07/19 09:33:07;;;;;;;15.60;9.65;;;;;;;27.96;57.70;99281.12;1662686;85;21624;-85
2021/07/19 09:35:36;;;;;;;14.58;6.50;;;;;;;27.42;60.86;99314.69;1669019;86;21100;-87
2021/07/19 09:38:07;;;;;;;18.30;7.42;;;;;;;26.95;61.84;99326.73;1683261;85;21009;-84
2021/07/19 09:40:35;;;;;;;14.05;6.65;;;;;;;26.53;63.25;99319.79;1687304;84;21038;-88
2021/07/19 09:43:18;;;;;;;10.90;6.00;;;;;;;26.06;64.80;99366.28;1648141;86;21168;-80
2021/07/19 09:45:48;;;;;;;11.97;6.58;;;;;;;25.55;67.47;99431.62;1623289;85;21614;-83
2021/07/19 09:48:14;;;;;;;17.02;8.45;;;;;;;24.87;71.04;99378.11;1691800;84;20948;-82
2021/07/19 09:50:47;;;;;;;19.70;7.83;;;;;;;24.23;74.65;99455.17;1684645;83;21477;-84
2021/07/19 09:53:13;;;;;;;12.35;7.60;;;;;;;23.61;78.74;99423.36;1680502;85;20997;-83
2021/07/19 09:55:40;;;;;;;7.17;6.42;;;;;;;22.91;89.98;99425.28;1668448;84;21040;-78
2021/07/19 09:58:06;;;;;;;12.10;7.67;;;;;;;22.39;95.39;99375.58;1694778;84;21061;-79
2021/07/19 10:00:34;;;;;;;9.70;6.33;;;;;;;22.13;99.25;99339.36;1665373;85;20983;-79
2021/07/19 10:03:12;;;;;;;15.13;10.40;;;;;;;22.01;100.00;99301.77;1683096;84;21603;-80
2021/07/19 10:05:39;;;;;;;11.53;5.72;;;;;;;21.91;100.00;99256.16;1659263;85;21020;-79
2021/07/19 10:08:05;;;;;;;17.23;7.72;;;;;;;21.87;100.00;99252.48;1682989;84;21122;-78
2021/07/19 10:10:39;;;;;;;12.75;7.33;;;;;;;21.90;100.00;99247.70;1687428;84;20996;-74
2021/07/19 10:13:10;;;;;;;8.18;4.75;;;;;;;21.85;100.00;99216.41;1659372;85;20896;-74
2021/07/19 10:15:38;;;;;;;8.65;5.05;;;;;;;21.79;100.00;99202.69;1693838;84;21238;-74
2021/07/19 10:18:08;;;;;;;10.43;5.53;;;;;;;21.75;100.00;99217.06;1683621;84;21000;-74
2021/07/19 10:20:39;;;;;;;10.10;5.15;;;;;;;21.82;100.00;99222.57;1663544;84;21034;-76
2021/07/19 10:23:05;;;;;;;5.33;4.05;;;;;;;21.81;98.60;99239.56;1663950;84;20951;-74
2021/07/19 10:25:37;;;;;;;10.85;6.60;;;;;;;21.82;98.11;99272.66;1663992;84;21019;-75
2021/07/19 10:28:01;;;;;;;8.63;6.37;;;;;;;21.84;96.38;99292.27;1691537;84;21051;-77
2021/07/19 10:30:27;;;;;;;15.58;7.22;;;;;;;21.86;98.81;99294.13;1694599;84;21086;-76
2021/07/19 10:32:55;;;;;;;14.65;9.40;;;;;;;21.88;99.79;99303.34;1668508;84;21229;-77
2021/07/19 10:35:23;;;;;;;18.05;8.78;;;;;;;21.88;100.00;99321.15;1666918;84;20916;-80
2021/07/19 10:37:58;;;;;;;12.25;9.53;;;;;;;21.83;100.00;99302.98;1684830;84;21004;-77
2021/07/19 10:40:27;;;;;;;9.13;7.67;;;;;;;21.81;100.00;99279.27;1663737;85;21118;-78
2021/07/19 10:43:06;;;;;;;11.50;8.23;;;;;;;21.83;100.00;99259.17;1684375;84;21020;-82
2021/07/19 10:45:52;;;;;;;17.90;10.35;;;;;;;21.85;100.00;99246.53;1688476;84;21062;-82
2021/07/19 10:48:24;;;;;;;10.82;8.65;;;;;;;21.90;100.00;99258.09;1673034;84;21757;-78
2021/07/19 10:50:51;;;;;;;20.48;10.18;;;;;;;21.98;100.00;99274.23;1664959;86;21041;-78
2021/07/19 10:53:22;;;;;;;14.60;10.35;;;;;;;22.00;100.00;99267.30;1638371;86;21656;-76
2021/07/19 10:56:01;;;;;;;11.93;9.40;;;;;;;22.02;100.00;99269.11;1695924;84;21147;-76
2021/07/19 10:58:46;;;;;;;13.62;7.90;;;;;;;22.04;100.00;99288.77;1653868;86;21114;-82
2021/07/19 11:01:26;;;;;;;9.90;7.58;;;;;;;22.02;100.00;99305.28;1668635;86;21040;-79
2021/07/19 11:03:58;;;;;;;15.00;8.78;;;;;;;21.98;100.00;99314.74;1672882;84;21058;-80
2021/07/19 11:06:39;;;;;;;18.17;10.53;;;;;;;21.98;100.00;99335.84;1669245;84;21020;-79
2021/07/19 11:09:08;;;;;;;18.60;9.70;;;;;;;21.99;100.00;99344.30;1696893;84;21056;-80
2021/07/19 11:11:39;;;;;;;20.62;11.03;;;;;;;22.03;100.00;99367.14;1685383;84;21118;-80
2021/07/19 11:14:13;;;;;;;18.05;11.48;;;;;;;22.04;100.00;99385.19;1711571;83;21015;-75
2021/07/19 11:16:50;;;;;;;12.00;9.58;;;;;;;22.01;100.00;99399.00;1728495;83;21564;-76
2021/07/19 11:19:29;;;;;;;16.60;10.72;;;;;;;22.00;100.00;99417.13;1724826;83;21051;-75
2021/07/19 11:22:11;;;;;;;21.25;10.30;;;;;;;21.97;100.00;99449.26;1695280;83;21016;-72
2021/07/19 11:24:47;;;;;;;20.17;10.28;;;;;;;21.87;100.00;99461.36;1699099;83;21555;-75